createdAt,value
2018-09-05T00:00:49.970Z,38.9
2018-09-05T00:02:50.041Z,40.0
2018-09-05T00:04:50.277Z,40.3
2018-09-05T00:06:49.534Z,39.4
2018-09-05T00:08:49.532Z,39.4
2018-09-05T00:10:49.796Z,40.6
2018-09-05T00:12:49.792Z,39.8
2018-09-05T00:14:49.754Z,39.6
2018-09-05T00:16:49.930Z,39.6
2018-09-05T00:18:49.945Z,39.2
2018-09-05T00:20:49.919Z,40.0
2018-09-05T00:22:49.894Z,40.7
2018-09-05T00:24:49.896Z,42.0
2018-09-05T00:26:49.981Z,42.0
2018-09-05T00:28:50.029Z,42.3
2018-09-05T00:30:50.093Z,39.5
2018-09-05T00:32:50.140Z,40.0
2018-09-05T00:34:50.425Z,39.4
2018-09-05T00:36:49.547Z,39.4
2018-09-05T00:38:49.797Z,42.5
2018-09-05T00:40:49.718Z,42.5
2018-09-05T00:42:49.791Z,41.0
2018-09-05T00:44:49.764Z,40.2
2018-09-05T00:46:50.062Z,40.2
2018-09-05T00:48:50.074Z,43.6
2018-09-05T00:50:49.986Z,46.1
2018-09-05T00:52:50.053Z,45.2
2018-09-05T00:54:50.016Z,44.2
2018-09-05T00:56:50.202Z,44.2
2018-09-05T00:58:50.143Z,47.1
2018-09-05T01:00:50.192Z,46.2
2018-09-05T01:02:50.183Z,46.4
2018-09-05T01:04:49.646Z,46.4
2018-09-05T01:06:50.006Z,47.4
2018-09-05T01:08:49.998Z,47.1
2018-09-05T01:10:50.030Z,48.5
2018-09-05T01:12:50.076Z,46.3
2018-09-05T01:14:50.062Z,46.3
2018-09-05T01:16:50.273Z,47.2
2018-09-05T01:18:50.237Z,48.4
2018-09-05T01:20:50.215Z,48.1
2018-09-05T01:22:50.155Z,46.7
2018-09-05T01:24:50.210Z,46.7
2018-09-05T01:26:50.334Z,46.9
2018-09-05T01:28:50.304Z,43.7
2018-09-05T01:30:50.332Z,45.7
2018-09-05T01:32:50.295Z,46.0
2018-09-05T01:34:49.774Z,46.0
2018-09-05T01:36:49.884Z,48.6
2018-09-05T01:38:49.873Z,54.1
2018-09-05T01:40:49.862Z,78.1
2018-09-05T01:42:49.855Z,78.1
2018-09-05T01:44:49.892Z,62.4
2018-09-05T01:46:50.032Z,73.1
2018-09-05T01:48:50.026Z,74.2
2018-09-05T01:50:50.011Z,75.5
2018-09-05T01:52:50.200Z,75.5
2018-09-05T01:54:50.165Z,68.1
2018-09-05T01:56:50.347Z,79.3
2018-09-05T01:58:50.314Z,74.5
2018-09-05T02:00:50.283Z,74.7
2018-09-05T02:02:50.372Z,74.7
2018-09-05T02:04:49.769Z,62.8
2018-09-05T02:06:49.935Z,60.2
2018-09-05T02:08:50.000Z,61.3
2018-09-05T02:10:50.016Z,60.5
2018-09-05T02:12:50.058Z,60.5
2018-09-05T02:14:50.122Z,60.5
2018-09-05T02:16:50.350Z,53.7
2018-09-05T02:18:50.449Z,65.2
2018-09-05T02:20:50.400Z,68.6
2018-09-05T02:22:50.404Z,68.6
2018-09-05T02:24:49.550Z,74.3
2018-09-05T02:26:49.684Z,77.4
2018-09-05T02:28:49.684Z,77.4
2018-09-05T02:30:49.801Z,86.9
2018-09-05T02:32:49.804Z,70.8
2018-09-05T02:34:50.202Z,90.7
2018-09-05T02:36:50.353Z,98.6
2018-09-05T02:38:50.287Z,91.9
2018-09-05T02:40:50.511Z,91.9
2018-09-05T02:42:49.802Z,95.4
2018-09-05T02:44:49.862Z,108.4
2018-09-05T02:46:49.960Z,95.0
2018-09-05T02:48:50.052Z,95.0
2018-09-05T02:50:50.067Z,100.6
2018-09-05T02:52:50.090Z,99.9
2018-09-05T02:54:50.249Z,114.2
2018-09-05T02:56:50.373Z,105.9
2018-09-05T02:58:50.386Z,95.1
2018-09-05T03:00:50.434Z,95.1
2018-09-05T03:02:49.533Z,100.9
2018-09-05T03:04:49.980Z,80.5
2018-09-05T03:06:50.229Z,110.6
2018-09-05T03:08:50.420Z,110.6
2018-09-05T03:10:49.650Z,87.7
2018-09-05T03:12:49.887Z,84.6
2018-09-05T03:14:49.917Z,84.6
2018-09-05T03:16:50.096Z,97.0
2018-09-05T03:18:53.738Z,94.5
2018-09-05T03:20:49.893Z,94.5
2018-09-05T03:22:49.941Z,83.9
2018-09-05T03:24:50.076Z,87.5
2018-09-05T03:26:50.242Z,105.5
2018-09-05T03:28:50.217Z,109.4
2018-09-05T03:30:50.340Z,109.4
2018-09-05T03:32:50.700Z,81.8
2018-09-05T03:34:50.021Z,81.8
2018-09-05T03:36:50.228Z,68.7
2018-09-05T03:38:50.272Z,68.7
2018-09-05T03:40:50.249Z,62.2
2018-09-05T03:42:49.555Z,74.2
2018-09-05T03:44:49.646Z,82.6
2018-09-05T03:46:49.905Z,82.6
2018-09-05T03:48:50.191Z,82.3
2018-09-05T03:50:50.270Z,86.6
2018-09-05T03:52:50.334Z,85.8
2018-09-05T03:54:50.392Z,89.5
2018-09-05T03:56:49.527Z,89.5
2018-09-05T03:58:49.648Z,94.4
2018-09-05T04:00:49.680Z,85.6
2018-09-05T04:02:49.645Z,100.6
2018-09-05T04:04:49.998Z,100.6
2018-09-05T04:06:50.159Z,89.2
2018-09-05T04:08:50.120Z,89.2
2018-09-05T04:10:50.123Z,88.6
2018-09-05T04:12:50.111Z,88.0
2018-09-05T04:14:50.078Z,80.8
2018-09-05T04:16:50.310Z,70.3
2018-09-05T04:18:50.341Z,70.3
2018-09-05T04:20:50.365Z,93.4
2018-09-05T04:22:50.376Z,83.8
2018-09-05T04:24:49.637Z,88.0
2018-09-05T04:26:49.728Z,97.1
2018-09-05T04:28:49.819Z,97.1
2018-09-05T04:30:49.823Z,95.8
2018-09-05T04:32:49.848Z,109.5
2018-09-05T04:34:50.169Z,115.5
2018-09-05T04:36:50.382Z,115.5
2018-09-05T04:38:50.333Z,108.2
2018-09-05T04:40:50.376Z,108.2
2018-09-05T04:42:50.339Z,105.1
2018-09-05T04:44:50.373Z,82.3
2018-09-05T04:46:49.625Z,82.3
2018-09-05T04:48:49.618Z,108.2
2018-09-05T04:50:49.724Z,88.0
2018-09-05T04:52:49.779Z,77.1
2018-09-05T04:54:49.791Z,77.1
2018-09-05T04:56:50.134Z,100.5
2018-09-05T04:58:50.258Z,75.9
2018-09-05T05:00:50.202Z,87.4
2018-09-05T05:02:50.252Z,87.4
2018-09-05T05:04:49.621Z,78.5
2018-09-05T05:06:49.884Z,65.1
2018-09-05T05:08:49.920Z,59.0
2018-09-05T05:10:49.916Z,78.5
2018-09-05T05:12:49.968Z,84.1
2018-09-05T05:14:49.968Z,84.1
2018-09-05T05:16:50.168Z,79.4
2018-09-05T05:18:50.127Z,81.8
2018-09-05T05:20:50.188Z,81.5
2018-09-05T05:22:50.336Z,92.7
2018-09-05T05:24:50.359Z,92.7
2018-09-05T05:26:49.579Z,70.2
2018-09-05T05:28:49.553Z,65.4
2018-09-05T05:30:49.558Z,76.8
2018-09-05T05:32:49.735Z,58.8
2018-09-05T05:34:50.339Z,58.8
2018-09-05T05:36:50.001Z,68.7
2018-09-05T05:38:50.021Z,69.3
2018-09-05T05:40:50.051Z,71.2
2018-09-05T05:42:50.066Z,63.9
2018-09-05T05:44:50.036Z,63.9
2018-09-05T05:46:50.532Z,78.3
2018-09-05T05:48:49.898Z,68.3
2018-09-05T05:50:49.834Z,54.9
2018-09-05T05:52:49.855Z,47.9
2018-09-05T05:54:49.869Z,47.9
2018-09-05T05:56:49.954Z,68.7
2018-09-05T05:58:49.923Z,58.4
2018-09-05T06:00:50.133Z,46.5
2018-09-05T06:02:49.785Z,46.5
2018-09-05T06:04:50.130Z,65.4
2018-09-05T06:06:50.280Z,52.0
2018-09-05T06:08:50.312Z,56.7
2018-09-05T06:10:50.355Z,53.7
2018-09-05T06:12:50.398Z,53.7
2018-09-05T06:14:50.582Z,60.4
2018-09-05T06:16:49.696Z,60.4
2018-09-05T06:18:49.749Z,55.7
2018-09-05T06:20:49.857Z,55.7
2018-09-05T06:22:50.151Z,56.7
2018-09-05T06:24:50.163Z,42.7
2018-09-05T06:26:50.178Z,42.7
2018-09-05T06:28:50.190Z,43.2
2018-09-05T06:30:50.247Z,43.2
2018-09-05T06:32:49.589Z,39.6
2018-09-05T06:34:49.928Z,42.9
2018-09-05T06:36:50.263Z,41.5
2018-09-05T06:38:50.207Z,41.5
2018-09-05T06:40:50.276Z,39.3
2018-09-05T06:42:50.399Z,42.9
2018-09-05T06:44:49.619Z,41.8
2018-09-05T06:46:49.951Z,34.2
2018-09-05T06:48:49.998Z,34.5
2018-09-05T06:50:50.042Z,37.2
2018-09-05T06:52:50.146Z,37.2
2018-09-05T06:54:50.185Z,38.5
2018-09-05T06:56:50.354Z,38.5
2018-09-05T06:58:50.404Z,37.4
2018-09-05T07:00:50.387Z,37.4
2018-09-05T07:02:50.466Z,35.4
2018-09-05T07:04:49.826Z,34.9
2018-09-05T07:06:50.105Z,39.8
2018-09-05T07:08:50.442Z,37.0
2018-09-05T07:10:50.416Z,37.0
2018-09-05T07:12:50.554Z,36.6
2018-09-05T07:14:49.533Z,34.9
2018-09-05T07:16:49.914Z,34.9
2018-09-05T07:18:50.030Z,34.6
2018-09-05T07:20:50.028Z,35.0
2018-09-05T07:22:50.091Z,33.8
2018-09-05T07:24:50.129Z,32.5
2018-09-05T07:26:49.615Z,32.5
2018-09-05T07:28:49.643Z,31.3
2018-09-05T07:30:49.876Z,31.3
2018-09-05T07:32:50.346Z,31.3
2018-09-05T07:34:49.822Z,28.7
2018-09-05T07:36:50.054Z,29.4
2018-09-05T07:38:50.036Z,29.4
2018-09-05T07:40:50.015Z,26.8
2018-09-05T07:42:50.028Z,25.1
2018-09-05T07:44:50.134Z,24.3
2018-09-05T07:46:50.409Z,25.0
2018-09-05T07:48:50.394Z,25.0
2018-09-05T07:50:50.600Z,23.7
2018-09-05T07:52:49.935Z,22.8
2018-09-05T07:54:49.927Z,23.8
2018-09-05T07:56:50.165Z,22.7
2018-09-05T07:58:50.213Z,22.7
2018-09-05T08:00:50.196Z,23.3
2018-09-05T08:02:50.288Z,23.6
2018-09-05T08:04:49.765Z,23.0
2018-09-05T08:06:50.144Z,22.8
2018-09-05T08:08:50.155Z,22.8
2018-09-05T08:10:50.165Z,22.2
2018-09-05T08:12:50.212Z,21.6
2018-09-05T08:14:50.257Z,22.9
2018-09-05T08:16:49.670Z,22.9
2018-09-05T08:18:49.710Z,22.7
2018-09-05T08:20:49.681Z,21.9
2018-09-05T08:22:49.764Z,21.1
2018-09-05T08:24:49.821Z,20.4
2018-09-05T08:26:50.166Z,20.4
2018-09-05T08:28:50.252Z,21.6
2018-09-05T08:30:49.540Z,20.2
2018-09-05T08:32:49.560Z,20.2
2018-09-05T08:34:50.575Z,19.9
2018-09-05T08:36:50.231Z,19.9
2018-09-05T08:38:50.024Z,20.8
2018-09-05T08:40:49.584Z,19.7
2018-09-05T08:42:49.736Z,19.3
2018-09-05T08:44:50.636Z,18.6
2018-09-05T08:46:50.311Z,18.6
2018-09-05T08:48:49.678Z,20.3
2018-09-05T08:50:49.746Z,20.6
2018-09-05T08:52:49.879Z,20.0
2018-09-05T08:54:50.339Z,20.0
2018-09-05T08:56:49.544Z,20.0
2018-09-05T08:58:49.780Z,20.0
2018-09-05T09:00:50.251Z,21.4
2018-09-05T09:02:50.393Z,19.4
2018-09-05T09:04:50.150Z,17.9
2018-09-05T09:06:49.755Z,17.9
2018-09-05T09:08:49.706Z,19.4
2018-09-05T09:10:49.787Z,20.7
2018-09-05T09:12:50.046Z,20.7
2018-09-05T09:14:50.489Z,20.9
2018-09-05T09:16:49.759Z,20.9
2018-09-05T09:18:49.748Z,21.4
2018-09-05T09:20:49.796Z,22.1
2018-09-05T09:22:49.974Z,23.2
2018-09-05T09:24:50.037Z,23.4
2018-09-05T09:26:50.184Z,23.4
2018-09-05T09:28:50.232Z,22.8
2018-09-05T09:30:50.206Z,22.7
2018-09-05T09:32:50.297Z,22.1
2018-09-05T09:34:49.649Z,22.1
2018-09-05T09:36:50.106Z,21.3
2018-09-05T09:38:50.147Z,20.8
2018-09-05T09:40:50.151Z,20.3
2018-09-05T09:42:50.303Z,21.3
2018-09-05T09:44:50.270Z,21.3
2018-09-05T09:46:50.632Z,19.0
2018-09-05T09:48:49.735Z,19.8
2018-09-05T09:50:49.800Z,17.9
2018-09-05T09:52:49.981Z,17.9
2018-09-05T09:54:50.097Z,19.1
2018-09-05T09:56:50.455Z,17.7
2018-09-05T09:58:49.578Z,20.2
2018-09-05T10:00:49.552Z,18.8
2018-09-05T10:02:49.640Z,20.6
2018-09-05T10:04:50.150Z,20.6
2018-09-05T10:06:49.790Z,23.2
2018-09-05T10:08:50.216Z,20.3
2018-09-05T10:10:50.199Z,20.9
2018-09-05T10:12:50.183Z,20.9
2018-09-05T10:14:50.313Z,21.6
2018-09-05T10:16:50.079Z,20.4
2018-09-05T10:18:50.103Z,19.9
2018-09-05T10:20:50.313Z,17.6
2018-09-05T10:22:49.563Z,17.6
2018-09-05T10:24:49.615Z,18.4
2018-09-05T10:26:49.757Z,18.6
2018-09-05T10:28:49.752Z,17.7
2018-09-05T10:30:49.807Z,16.6
2018-09-05T10:32:49.794Z,16.6
2018-09-05T10:34:49.995Z,16.1
2018-09-05T10:36:50.113Z,14.3
2018-09-05T10:38:50.118Z,14.1
2018-09-05T10:40:50.077Z,13.2
2018-09-05T10:42:50.019Z,13.2
2018-09-05T10:44:50.041Z,13.9
2018-09-05T10:46:50.231Z,13.7
2018-09-05T10:48:50.237Z,14.3
2018-09-05T10:50:50.256Z,13.5
2018-09-05T10:52:50.211Z,13.5
2018-09-05T10:54:50.170Z,12.8
2018-09-05T10:56:50.281Z,12.5
2018-09-05T10:58:50.271Z,12.4
2018-09-05T11:00:50.262Z,14.0
2018-09-05T11:02:50.269Z,14.0
2018-09-05T11:04:49.688Z,13.7
2018-09-05T11:06:49.925Z,12.5
2018-09-05T11:08:49.900Z,11.5
2018-09-05T11:10:49.982Z,11.5
2018-09-05T11:12:50.397Z,11.3
2018-09-05T11:14:50.382Z,11.6
2018-09-05T11:16:49.618Z,11.3
2018-09-05T11:18:49.653Z,11.3
2018-09-05T11:20:49.727Z,11.8
2018-09-05T11:22:49.784Z,11.0
2018-09-05T11:24:49.831Z,11.2
2018-09-05T11:26:50.022Z,11.2
2018-09-05T11:28:49.987Z,11.3
2018-09-05T11:30:50.009Z,11.3
2018-09-05T11:32:50.036Z,11.6
2018-09-05T11:34:50.424Z,12.2
2018-09-05T11:36:50.167Z,11.8
2018-09-05T11:38:50.391Z,12.2
2018-09-05T11:40:50.368Z,12.2
2018-09-05T11:42:50.498Z,12.6
2018-09-05T11:44:49.535Z,12.4
2018-09-05T11:46:49.618Z,12.2
2018-09-05T11:48:49.709Z,11.9
2018-09-05T11:50:49.701Z,11.9
2018-09-05T11:52:49.792Z,12.1
2018-09-05T11:54:49.775Z,11.9
2018-09-05T11:56:49.863Z,12.2
2018-09-05T11:58:49.805Z,12.2
2018-09-05T12:00:49.816Z,12.2
2018-09-05T12:02:49.824Z,13.0
2018-09-05T12:04:50.258Z,13.0
2018-09-05T12:06:49.973Z,13.0
2018-09-05T12:08:49.995Z,13.0
2018-09-05T12:10:49.985Z,11.9
2018-09-05T12:12:50.030Z,11.1
2018-09-05T12:14:50.116Z,12.1
2018-09-05T12:16:50.304Z,11.4
2018-09-05T12:18:50.454Z,11.4
2018-09-05T12:20:49.534Z,12.1
2018-09-05T12:22:49.727Z,12.3
2018-09-05T12:24:49.720Z,11.7
2018-09-05T12:26:49.933Z,11.4
2018-09-05T12:28:49.936Z,11.4
2018-09-05T12:30:49.962Z,12.1
2018-09-05T12:32:49.973Z,11.8
2018-09-05T12:34:50.287Z,11.6
2018-09-05T12:36:50.416Z,11.6
2018-09-05T12:38:50.440Z,11.3
2018-09-05T12:40:49.587Z,11.6
2018-09-05T12:42:49.583Z,11.0
2018-09-05T12:44:49.991Z,11.3
2018-09-05T12:46:49.958Z,11.3
2018-09-05T12:48:49.993Z,11.3
2018-09-05T12:50:49.999Z,11.1
2018-09-05T12:52:50.144Z,10.9
2018-09-05T12:54:50.108Z,10.9
2018-09-05T12:56:49.537Z,10.9
2018-09-05T12:58:49.532Z,11.2
2018-09-05T13:00:49.556Z,11.2
2018-09-05T13:02:49.595Z,10.6
2018-09-05T13:04:49.904Z,10.8
2018-09-05T13:06:50.245Z,10.8
2018-09-05T13:08:50.357Z,10.8
2018-09-05T13:10:50.378Z,10.8
2018-09-05T13:12:49.557Z,11.5
2018-09-05T13:14:49.590Z,11.5
2018-09-05T13:16:49.742Z,11.1
2018-09-05T13:18:49.762Z,11.0
2018-09-05T13:20:49.801Z,11.2
2018-09-05T13:22:49.990Z,11.0
2018-09-05T13:24:50.399Z,11.0
2018-09-05T13:26:49.743Z,10.7
2018-09-05T13:28:49.907Z,10.4
2018-09-05T13:30:49.922Z,10.7
2018-09-05T13:32:49.924Z,10.7
2018-09-05T13:34:50.334Z,11.1
2018-09-05T13:36:49.525Z,10.9
2018-09-05T13:38:49.572Z,10.9
2018-09-05T13:40:49.632Z,10.6
2018-09-05T13:42:49.611Z,10.3
2018-09-05T13:44:49.826Z,10.3
2018-09-05T13:46:50.050Z,10.6
2018-09-05T13:48:50.084Z,10.3
2018-09-05T13:50:50.074Z,10.3
2018-09-05T13:52:50.106Z,10.4
2018-09-05T13:54:49.564Z,10.4
2018-09-05T13:56:50.007Z,10.6
2018-09-05T13:58:50.161Z,10.5
2018-09-05T14:00:50.149Z,10.3
2018-09-05T14:02:50.388Z,11.1
2018-09-05T14:04:50.043Z,11.1
2018-09-05T14:06:50.226Z,10.1
2018-09-05T14:08:50.297Z,10.6
2018-09-05T14:10:50.342Z,10.6
2018-09-05T14:12:50.279Z,10.2
2018-09-05T14:14:50.357Z,10.3
2018-09-05T14:16:49.571Z,10.4
2018-09-05T14:18:49.648Z,12.1
2018-09-05T14:20:49.719Z,11.2
2018-09-05T14:22:49.730Z,11.2
2018-09-05T14:24:49.799Z,10.1
2018-09-05T14:26:49.888Z,12.5
2018-09-05T14:28:49.837Z,11.2
2018-09-05T14:30:49.786Z,10.6
2018-09-05T14:32:49.764Z,10.6
2018-09-05T14:34:50.062Z,10.7
2018-09-05T14:36:50.350Z,10.0
2018-09-05T14:38:50.339Z,10.0
2018-09-05T14:40:50.308Z,9.5
2018-09-05T14:42:50.378Z,9.5
2018-09-05T14:44:50.375Z,10.1
2018-09-05T14:46:49.550Z,10.2
2018-09-05T14:48:49.624Z,9.6
2018-09-05T14:50:49.612Z,9.6
2018-09-05T14:52:49.805Z,11.7
2018-09-05T14:54:49.805Z,17.8
2018-09-05T14:56:49.952Z,10.9
2018-09-05T14:58:49.885Z,11.0
2018-09-05T15:00:49.821Z,9.5
2018-09-05T15:02:49.816Z,9.5
2018-09-05T15:04:50.119Z,10.2
2018-09-05T15:06:50.388Z,9.7
2018-09-05T15:08:49.527Z,9.9
2018-09-05T15:10:49.593Z,10.6
2018-09-05T15:12:49.799Z,10.6
2018-09-05T15:14:49.845Z,10.1
2018-09-05T15:16:50.072Z,9.9
2018-09-05T15:18:50.064Z,10.0
2018-09-05T15:20:50.040Z,10.0
2018-09-05T15:22:50.081Z,9.9
2018-09-05T15:24:50.108Z,9.8
2018-09-05T15:26:50.209Z,9.3
2018-09-05T15:28:50.421Z,10.1
2018-09-05T15:30:49.846Z,10.1
2018-09-05T15:32:49.793Z,9.9
2018-09-05T15:34:50.013Z,9.3
2018-09-05T15:36:50.132Z,9.6
2018-09-05T15:38:50.223Z,9.6
2018-09-05T15:40:50.385Z,9.6
2018-09-05T15:42:49.770Z,9.5
2018-09-05T15:44:49.941Z,9.9
2018-09-05T15:46:50.332Z,10.0
2018-09-05T15:48:49.706Z,10.0
2018-09-05T15:50:49.762Z,9.7
2018-09-05T15:52:49.875Z,9.7
2018-09-05T15:54:49.889Z,9.1
2018-09-05T15:56:50.143Z,9.1
2018-09-05T15:58:50.261Z,9.1
2018-09-05T16:00:50.234Z,10.1
2018-09-05T16:02:50.248Z,10.1
2018-09-05T16:04:49.753Z,9.7
2018-09-05T16:06:49.948Z,10.6
2018-09-05T16:08:49.991Z,10.6
2018-09-05T16:10:49.968Z,10.6
2018-09-05T16:12:49.970Z,9.8
2018-09-05T16:14:50.079Z,9.6
2018-09-05T16:16:50.225Z,9.6
2018-09-05T16:18:50.276Z,9.9
2018-09-05T16:20:50.382Z,10.1
2018-09-05T16:22:50.379Z,10.2
2018-09-05T16:24:50.520Z,9.9
2018-09-05T16:26:49.642Z,9.8
2018-09-05T16:28:49.779Z,9.8
2018-09-05T16:30:49.741Z,10.2
2018-09-05T16:32:49.698Z,10.2
2018-09-05T16:34:50.090Z,10.1
2018-09-05T16:36:50.263Z,11.5
2018-09-05T16:38:50.258Z,11.5
2018-09-05T16:40:50.253Z,11.2
2018-09-05T16:42:50.303Z,10.6
2018-09-05T16:44:50.321Z,10.2
2018-09-05T16:46:50.498Z,10.9
2018-09-05T16:48:50.606Z,10.9
2018-09-05T16:50:49.652Z,10.7
2018-09-05T16:52:49.667Z,13.7
2018-09-05T16:54:49.816Z,11.5
2018-09-05T16:56:50.376Z,11.5
2018-09-05T16:58:50.349Z,11.2
2018-09-05T17:00:50.458Z,11.3
2018-09-05T17:02:49.744Z,12.0
2018-09-05T17:04:50.073Z,11.0
2018-09-05T17:06:50.273Z,11.0
2018-09-05T17:08:50.276Z,11.5
2018-09-05T17:10:50.374Z,10.7
2018-09-05T17:12:50.390Z,10.8
2018-09-05T17:14:50.411Z,10.8
2018-09-05T17:16:49.609Z,10.6
2018-09-05T17:18:49.690Z,11.0
2018-09-05T17:20:49.705Z,11.0
2018-09-05T17:22:49.804Z,11.0
2018-09-05T17:24:49.819Z,11.1
2018-09-05T17:26:50.033Z,11.2
2018-09-05T17:28:50.030Z,11.2
2018-09-05T17:30:50.033Z,10.8
2018-09-05T17:32:50.057Z,13.2
2018-09-05T17:34:50.241Z,13.2
2018-09-05T17:36:49.555Z,11.3
2018-09-05T17:38:49.644Z,11.0
2018-09-05T17:40:49.728Z,11.0
2018-09-05T17:42:49.694Z,11.0
2018-09-05T17:44:49.823Z,11.3
2018-09-05T17:46:50.005Z,10.8
2018-09-05T17:48:50.011Z,11.4
2018-09-05T17:50:50.027Z,11.6
2018-09-05T17:52:50.034Z,11.6
2018-09-05T17:54:50.098Z,11.0
2018-09-05T17:56:50.252Z,11.6
2018-09-05T17:58:50.247Z,14.0
2018-09-05T18:00:50.223Z,12.1
2018-09-05T18:02:50.206Z,11.8
2018-09-05T18:04:49.612Z,11.8
2018-09-05T18:06:49.816Z,11.7
2018-09-05T18:08:49.788Z,11.8
2018-09-05T18:10:49.774Z,11.8
2018-09-05T18:12:49.861Z,12.4
2018-09-05T18:14:49.926Z,12.4
2018-09-05T18:16:50.157Z,11.8
2018-09-05T18:18:50.181Z,13.0
2018-09-05T18:20:50.136Z,13.2
2018-09-05T18:22:50.171Z,12.4
2018-09-05T18:24:50.170Z,12.4
2018-09-05T18:26:50.338Z,12.2
2018-09-05T18:28:50.267Z,12.5
2018-09-05T18:30:50.312Z,12.6
2018-09-05T18:32:50.410Z,13.5
2018-09-05T18:34:49.866Z,13.5
2018-09-05T18:36:50.179Z,13.4
2018-09-05T18:38:50.206Z,13.8
2018-09-05T18:40:50.225Z,13.8
2018-09-05T18:42:50.221Z,13.5
2018-09-05T18:44:50.170Z,13.6
2018-09-05T18:46:50.378Z,14.2
2018-09-05T18:48:50.342Z,13.1
2018-09-05T18:50:50.394Z,13.9
2018-09-05T18:52:50.350Z,13.9
2018-09-05T18:54:49.609Z,13.9
2018-09-05T18:56:49.913Z,14.8
2018-09-05T18:58:49.883Z,13.9
2018-09-05T19:00:49.922Z,13.9
2018-09-05T19:02:51.253Z,14.3
2018-09-05T19:04:49.535Z,14.4
2018-09-05T19:06:49.894Z,14.2
2018-09-05T19:08:49.885Z,14.2
2018-09-05T19:10:49.929Z,14.3
2018-09-05T19:12:49.863Z,15.2
2018-09-05T19:14:50.073Z,15.2
2018-09-05T19:16:50.255Z,15.1
2018-09-05T19:18:50.186Z,15.1
2018-09-05T19:20:50.179Z,15.4
2018-09-05T19:22:50.302Z,15.3
2018-09-05T19:24:49.633Z,15.3
2018-09-05T19:26:49.858Z,16.8
2018-09-05T19:28:49.865Z,16.3
2018-09-05T19:30:49.798Z,16.3
2018-09-05T19:32:49.898Z,16.2
2018-09-05T19:34:50.170Z,16.2
2018-09-05T19:36:50.313Z,16.7
2018-09-05T19:38:50.414Z,16.7
2018-09-05T19:40:49.708Z,16.4
2018-09-05T19:42:49.703Z,16.9
2018-09-05T19:44:49.848Z,17.5
2018-09-05T19:46:50.067Z,17.4
2018-09-05T19:48:50.085Z,17.6
2018-09-05T19:50:50.020Z,17.6
2018-09-05T19:52:50.080Z,17.9
2018-09-05T19:54:50.105Z,18.1
2018-09-05T19:56:49.554Z,18.1
2018-09-05T19:58:49.538Z,19.0
2018-09-05T20:00:49.804Z,17.5
2018-09-05T20:02:49.876Z,17.8
2018-09-05T20:04:50.155Z,17.8
2018-09-05T20:06:50.241Z,17.6
2018-09-05T20:08:50.529Z,17.7
2018-09-05T20:10:50.100Z,17.7
2018-09-05T20:12:50.092Z,18.0
2018-09-05T20:14:50.085Z,18.2
2018-09-05T20:16:50.275Z,17.9
2018-09-05T20:18:50.373Z,17.9
2018-09-05T20:20:50.409Z,18.9
2018-09-05T20:22:49.553Z,18.9
2018-09-05T20:24:49.531Z,19.2
2018-09-05T20:26:49.805Z,19.0
2018-09-05T20:28:49.888Z,19.0
2018-09-05T20:30:50.105Z,19.0
2018-09-05T20:32:50.147Z,18.8
2018-09-05T20:34:49.614Z,18.8
2018-09-05T20:36:49.875Z,19.1
2018-09-05T20:38:49.856Z,19.1
2018-09-05T20:40:49.952Z,18.7
2018-09-05T20:42:50.046Z,18.6
2018-09-05T20:44:50.113Z,19.5
2018-09-05T20:46:50.297Z,20.0
2018-09-05T20:48:50.352Z,20.0
2018-09-05T20:50:50.401Z,19.7
2018-09-05T20:52:50.326Z,20.1
2018-09-05T20:54:50.398Z,21.1
2018-09-05T20:56:49.627Z,21.1
2018-09-05T20:58:49.826Z,20.5
2018-09-05T21:00:49.558Z,20.5
2018-09-05T21:02:49.633Z,19.2
2018-09-05T21:04:50.003Z,20.3
2018-09-05T21:06:50.367Z,20.3
2018-09-05T21:08:50.386Z,19.8
2018-09-05T21:10:50.294Z,20.2
2018-09-05T21:12:50.478Z,20.4
2018-09-05T21:14:50.504Z,21.0
2018-09-05T21:16:49.658Z,21.0
2018-09-05T21:18:49.792Z,21.2
2018-09-05T21:20:49.779Z,20.5
2018-09-05T21:22:49.845Z,20.3
2018-09-05T21:24:49.881Z,20.3
2018-09-05T21:26:50.093Z,20.9
2018-09-05T21:28:50.064Z,20.7
2018-09-05T21:30:50.100Z,21.2
2018-09-05T21:32:50.133Z,21.2
2018-09-05T21:34:49.556Z,21.8
2018-09-05T21:36:49.848Z,21.8
2018-09-05T21:38:49.817Z,21.2
2018-09-05T21:40:49.816Z,21.4
2018-09-05T21:42:49.790Z,21.5
2018-09-05T21:44:49.784Z,21.5
2018-09-05T21:46:49.933Z,22.4
2018-09-05T21:48:49.965Z,22.5
2018-09-05T21:50:50.169Z,21.9
2018-09-05T21:52:50.359Z,21.3
2018-09-05T21:54:49.994Z,21.3
2018-09-05T21:56:50.213Z,22.3
2018-09-05T21:58:50.196Z,22.2
2018-09-05T22:00:50.167Z,22.2
2018-09-05T22:02:50.156Z,22.6
2018-09-05T22:04:49.657Z,22.6
2018-09-05T22:06:49.824Z,22.5
2018-09-05T22:08:49.846Z,21.5
2018-09-05T22:10:49.875Z,21.5
2018-09-05T22:12:49.840Z,24.0
2018-09-05T22:14:50.059Z,24.0
2018-09-05T22:16:50.207Z,23.6
2018-09-05T22:18:50.243Z,23.7
2018-09-05T22:20:50.253Z,22.8
2018-09-05T22:22:50.234Z,22.8
2018-09-05T22:24:50.324Z,23.6
2018-09-05T22:26:50.417Z,23.0
2018-09-05T22:28:50.393Z,23.6
2018-09-05T22:30:50.349Z,22.3
2018-09-05T22:32:49.508Z,22.3
2018-09-05T22:34:49.938Z,23.0
2018-09-05T22:36:50.105Z,23.8
2018-09-05T22:38:50.078Z,23.7
2018-09-05T22:40:50.169Z,23.5
2018-09-05T22:42:50.211Z,23.5
2018-09-05T22:44:50.114Z,23.6
2018-09-05T22:46:50.351Z,23.9
2018-09-05T22:48:49.629Z,24.1
2018-09-05T22:50:50.062Z,24.3
2018-09-05T22:52:50.124Z,24.3
2018-09-05T22:54:50.167Z,23.4
2018-09-05T22:56:49.992Z,24.2
2018-09-05T22:58:50.374Z,23.0
2018-09-05T23:00:50.117Z,23.0
2018-09-05T23:02:50.259Z,24.2
2018-09-05T23:04:49.974Z,23.9
2018-09-05T23:06:49.985Z,24.0
2018-09-05T23:08:50.027Z,24.0
2018-09-05T23:10:50.036Z,23.3
2018-09-05T23:12:50.018Z,23.3
2018-09-05T23:14:50.039Z,23.8
2018-09-05T23:16:50.254Z,24.8
2018-09-05T23:18:50.300Z,24.1
2018-09-05T23:20:49.823Z,24.1
2018-09-05T23:22:49.574Z,25.4
2018-09-05T23:24:49.645Z,24.1
2018-09-05T23:26:49.854Z,25.4
2018-09-05T23:28:49.861Z,25.4
2018-09-05T23:30:49.891Z,24.8
2018-09-05T23:32:49.904Z,25.2
2018-09-05T23:34:50.267Z,24.8
2018-09-05T23:36:49.549Z,25.4
2018-09-05T23:38:49.715Z,25.4
2018-09-05T23:40:49.764Z,25.1
2018-09-05T23:42:49.735Z,25.0
2018-09-05T23:44:49.761Z,25.5
2018-09-05T23:46:49.837Z,24.6
2018-09-05T23:48:49.831Z,25.6
2018-09-05T23:50:49.797Z,25.6
2018-09-05T23:52:49.893Z,24.6
2018-09-05T23:54:49.957Z,26.1
2018-09-05T23:56:50.120Z,26.1
2018-09-05T23:58:50.142Z,26.5
